Lewistown, Maryland
Current Conditions -  °F | °C
As of 12:40 AM on Sunday 26 Oct 2014 (Local Time) from KFDK Reporting Station
Broken Clouds Broken Clouds  
Wind Chill: 63°   Ceiling: 6000
Heat Index: 63°   Visibility: 10mi
Dew Point: 48°   Wind: 5mph
Humidity: 59%   Direction: 180°S
Pressure: 29.7"   Gusts: NA
Location:  39.4393°N, 77.3428°W
Report Text: KFDK 260440Z AUTO 18004KT 10SM BKN060 17/09 A2970 RMK AO2
Loading
Personal Weather Stations






























Interactive Weather Map
Tropical Storm Tracking
New forecast layout! Learn more

10-Day Weather Forecast

Advertisements
Track Severe Weather on mobile